Time;durP1;ratioP1;P1;durP2;ratioP2;P2;SDS_P1;SDS_P2;PMS_P1;PMS_P2;Temp;Humidity;BMP_temperature;BMP_pressure;BME280_temperature;BME280_humidity;BME280_pressure;Samples;Min_cycle;Max_cycle;Signal;HPM_P1;HPM_P2
2021/01/23 00:04:25;;;;;;;23.58;19.62;;;;;;;;;;4943395;28;20049;31
2021/01/23 00:07:18;;;;;;;22.62;19.17;;;;;;;;;;4148938;34;20111;-54
2021/01/23 00:09:58;;;;;;;24.50;20.15;;;;;;;;;;4154046;34;20527;-51
2021/01/23 00:12:28;;;;;;;25.45;19.55;;;;;;;;;;4164567;34;20095;-55
2021/01/23 00:15:26;;;;;;;24.48;19.58;;;;;;;;;;4164503;34;20117;-50
2021/01/23 00:17:56;;;;;;;23.50;20.12;;;;;;;;;;4164511;34;20134;-56
2021/01/23 00:20:29;;;;;;;22.90;18.75;;;;;;;;;;4151560;34;20190;-53
2021/01/23 00:22:58;;;;;;;22.10;18.98;;;;;;;;;;4152369;34;20539;-51
2021/01/23 00:25:27;;;;;;;25.27;18.45;;;;;;;;;;4152020;34;20110;-55
2021/01/23 00:28:04;;;;;;;21.62;18.48;;;;;;;;;;4164460;34;20523;-49
2021/01/23 00:30:31;;;;;;;25.90;18.77;;;;;;;;;;4164231;34;20542;-56
2021/01/23 00:32:58;;;;;;;23.58;18.58;;;;;;;;;;4163595;34;20129;-54
2021/01/23 00:35:25;;;;;;;22.92;18.85;;;;;;;;;;4163913;34;20184;-52
2021/01/23 00:37:55;;;;;;;22.23;19.00;;;;;;;;;;4164511;34;20119;-50
2021/01/23 00:40:23;;;;;;;23.17;19.20;;;;;;;;;;4164216;34;20109;-55
2021/01/23 00:42:51;;;;;;;21.15;18.95;;;;;;;;;;4140708;34;20122;-55
2021/01/23 00:45:17;;;;;;;25.42;19.08;;;;;;;;;;4164173;34;20248;-49
2021/01/23 00:47:44;;;;;;;22.60;18.75;;;;;;;;;;4164258;34;20458;-47
2021/01/23 00:50:13;;;;;;;22.73;19.45;;;;;;;;;;4164219;34;20138;-51
2021/01/23 00:52:44;;;;;;;23.12;19.12;;;;;;;;;;4164210;34;20458;-52
2021/01/23 00:55:12;;;;;;;24.58;20.37;;;;;;;;;;4151529;34;20542;-56
2021/01/23 00:57:40;;;;;;;30.50;22.92;;;;;;;;;;4151771;34;20102;-50
2021/01/23 01:00:11;;;;;;;29.02;21.92;;;;;;;;;;4164072;34;20537;-54
2021/01/23 01:02:43;;;;;;;34.53;21.70;;;;;;;;;;4141120;34;20107;-47
2021/01/23 01:05:15;;;;;;;32.35;22.92;;;;;;;;;;4163798;34;20162;-53
2021/01/23 01:07:45;;;;;;;31.65;22.60;;;;;;;;;;4163977;34;20105;-56
2021/01/23 01:10:15;;;;;;;34.92;23.45;;;;;;;;;;4163848;34;20110;-56
2021/01/23 01:12:49;;;;;;;29.42;22.50;;;;;;;;;;4164009;34;20205;-50
2021/01/23 01:15:23;;;;;;;32.22;21.73;;;;;;;;;;4151969;34;20122;-55
2021/01/23 01:17:51;;;;;;;28.67;20.70;;;;;;;;;;4164134;34;20106;-56
2021/01/23 01:20:25;;;;;;;32.38;21.30;;;;;;;;;;4151332;34;20129;-51
2021/01/23 01:22:57;;;;;;;27.73;21.50;;;;;;;;;;4163955;34;20091;-56
2021/01/23 01:25:25;;;;;;;28.42;21.60;;;;;;;;;;4163859;34;20216;-48
2021/01/23 01:27:54;;;;;;;27.65;21.12;;;;;;;;;;4163937;34;20450;-51
2021/01/23 01:30:22;;;;;;;28.60;21.83;;;;;;;;;;4151143;34;20115;-47
2021/01/23 01:32:59;;;;;;;30.37;22.05;;;;;;;;;;4163850;34;20528;-50
2021/01/23 01:35:27;;;;;;;27.58;20.83;;;;;;;;;;4162373;34;20111;-54
2021/01/23 01:37:58;;;;;;;34.55;22.62;;;;;;;;;;4163874;34;20122;-46
2021/01/23 01:40:26;;;;;;;34.33;22.52;;;;;;;;;;4163615;34;20510;-56
2021/01/23 01:42:58;;;;;;;29.70;20.83;;;;;;;;;;4163646;34;20130;-55
2021/01/23 01:45:26;;;;;;;34.72;22.90;;;;;;;;;;4163065;34;20140;-55
2021/01/23 01:47:58;;;;;;;35.50;22.87;;;;;;;;;;4163617;34;20211;-48
2021/01/23 01:50:29;;;;;;;34.65;22.60;;;;;;;;;;4163334;34;20122;-55
2021/01/23 01:52:56;;;;;;;33.13;23.35;;;;;;;;;;4139936;34;20098;-56
2021/01/23 01:55:33;;;;;;;29.65;21.95;;;;;;;;;;4140077;34;20215;-57
2021/01/23 01:58:00;;;;;;;29.12;21.67;;;;;;;;;;4151605;34;20522;-58
2021/01/23 02:00:34;;;;;;;34.80;23.55;;;;;;;;;;4161906;34;20474;-48
2021/01/23 02:03:37;;;;;;;31.45;21.35;;;;;;;;;;4163259;34;20109;-50
2021/01/23 02:06:27;;;;;;;28.40;21.08;;;;;;;;;;4152299;34;20619;-52
2021/01/23 02:09:26;;;;;;;30.85;21.10;;;;;;;;;;4163383;34;20114;-49
2021/01/23 02:12:18;;;;;;;29.15;20.23;;;;;;;;;;4138540;34;20095;-56
2021/01/23 02:15:09;;;;;;;26.73;19.08;;;;;;;;;;4163365;34;20252;-50
2021/01/23 02:17:45;;;;;;;31.52;19.40;;;;;;;;;;4163487;34;20107;-51
2021/01/23 02:20:24;;;;;;;24.65;18.37;;;;;;;;;;4151138;34;20639;-54
2021/01/23 02:23:28;;;;;;;24.48;18.83;;;;;;;;;;4151334;34;20601;-56
2021/01/23 02:26:24;;;;;;;22.23;17.05;;;;;;;;;;4149967;34;20537;-58
2021/01/23 02:29:01;;;;;;;26.23;18.25;;;;;;;;;;4163188;34;20662;-57
2021/01/23 02:31:40;;;;;;;23.52;16.92;;;;;;;;;;4162998;34;20450;-54
2021/01/23 02:34:08;;;;;;;22.65;17.65;;;;;;;;;;4151198;34;20103;-55
2021/01/23 02:36:39;;;;;;;21.00;15.07;;;;;;;;;;4139663;34;20128;-56
2021/01/23 02:39:12;;;;;;;19.92;15.40;;;;;;;;;;4151024;34;20118;-57
2021/01/23 02:41:40;;;;;;;23.95;16.65;;;;;;;;;;4139397;34;20118;-58
2021/01/23 02:44:08;;;;;;;18.12;14.70;;;;;;;;;;4139582;34;20110;-56
2021/01/23 02:46:40;;;;;;;17.92;15.65;;;;;;;;;;4162849;34;20146;-50
2021/01/23 02:49:16;;;;;;;19.17;15.18;;;;;;;;;;4163183;34;20473;-48
2021/01/23 02:52:01;;;;;;;19.40;13.75;;;;;;;;;;4150747;34;20152;-50
2021/01/23 02:54:38;;;;;;;18.77;13.32;;;;;;;;;;4150415;34;20552;-53
2021/01/23 02:57:07;;;;;;;22.02;14.73;;;;;;;;;;4152389;34;20506;-47
2021/01/23 02:59:34;;;;;;;22.77;14.25;;;;;;;;;;4152350;34;20102;-48
2021/01/23 03:02:03;;;;;;;19.92;13.43;;;;;;;;;;4152713;34;20215;-54
2021/01/23 03:04:34;;;;;;;19.40;14.82;;;;;;;;;;4152465;34;20138;-50
2021/01/23 03:07:02;;;;;;;19.15;15.15;;;;;;;;;;4152399;34;20107;-48
2021/01/23 03:09:28;;;;;;;17.60;14.40;;;;;;;;;;4141226;34;20238;-46
2021/01/23 03:12:04;;;;;;;19.17;14.95;;;;;;;;;;4152585;34;20095;-51
2021/01/23 03:14:35;;;;;;;22.27;15.80;;;;;;;;;;4164828;34;20243;-53
2021/01/23 03:17:05;;;;;;;18.02;15.00;;;;;;;;;;4163810;34;20114;-48
2021/01/23 03:19:33;;;;;;;20.98;14.95;;;;;;;;;;4163412;34;20554;-51
2021/01/23 03:22:03;;;;;;;22.87;15.82;;;;;;;;;;4165157;34;20118;-50
2021/01/23 03:24:31;;;;;;;16.33;14.20;;;;;;;;;;4164714;34;20199;-46
2021/01/23 03:27:16;;;;;;;19.70;14.93;;;;;;;;;;4143371;34;20191;-52
2021/01/23 03:29:48;;;;;;;20.25;14.73;;;;;;;;;;4164638;34;20126;-47
2021/01/23 03:32:16;;;;;;;19.40;14.43;;;;;;;;;;4164765;34;20095;-52
2021/01/23 03:34:43;;;;;;;17.45;13.55;;;;;;;;;;4164802;34;20525;-54
2021/01/23 03:37:09;;;;;;;14.90;12.82;;;;;;;;;;4164937;34;20121;-55
2021/01/23 03:39:36;;;;;;;19.55;14.40;;;;;;;;;;4152258;34;20225;-52
2021/01/23 03:42:03;;;;;;;19.20;13.25;;;;;;;;;;4172086;34;20099;-49
2021/01/23 03:44:29;;;;;;;15.88;12.95;;;;;;;;;;4165654;34;20548;-53
2021/01/23 03:46:55;;;;;;;19.00;14.00;;;;;;;;;;4178426;34;20127;-52
2021/01/23 03:49:22;;;;;;;15.73;12.52;;;;;;;;;;4177883;34;20279;-51
2021/01/23 03:51:51;;;;;;;19.17;13.88;;;;;;;;;;4178422;34;20138;-47
2021/01/23 03:54:18;;;;;;;19.98;15.20;;;;;;;;;;4165686;34;20454;-52
2021/01/23 03:56:45;;;;;;;18.80;14.43;;;;;;;;;;4165811;34;20122;-50
2021/01/23 03:59:12;;;;;;;17.05;13.05;;;;;;;;;;4178379;34;20198;-50
2021/01/23 04:01:39;;;;;;;17.77;13.18;;;;;;;;;;4178263;34;20110;-51
2021/01/23 04:04:06;;;;;;;17.35;13.18;;;;;;;;;;4178258;34;20130;-49
2021/01/23 04:06:33;;;;;;;14.90;13.27;;;;;;;;;;4176380;34;20119;-51
2021/01/23 04:08:59;;;;;;;16.62;13.23;;;;;;;;;;4165281;34;20149;-51
2021/01/23 04:11:25;;;;;;;17.48;13.07;;;;;;;;;;4165286;34;20129;-51
2021/01/23 04:13:52;;;;;;;15.60;13.05;;;;;;;;;;4178041;34;20202;-51
2021/01/23 04:16:19;;;;;;;18.85;13.48;;;;;;;;;;4177897;34;20099;-50
2021/01/23 04:18:45;;;;;;;17.40;12.73;;;;;;;;;;4178245;34;20118;-50
2021/01/23 04:21:11;;;;;;;18.20;13.27;;;;;;;;;;4178039;34;20098;-53
2021/01/23 04:23:39;;;;;;;15.93;12.65;;;;;;;;;;4176862;34;20109;-49
2021/01/23 04:26:05;;;;;;;18.70;13.18;;;;;;;;;;4177862;34;20110;-54
2021/01/23 04:28:33;;;;;;;16.85;11.98;;;;;;;;;;4177841;34;20288;-52
2021/01/23 04:31:00;;;;;;;16.52;11.68;;;;;;;;;;4178069;34;20094;-49
2021/01/23 04:33:27;;;;;;;19.10;12.35;;;;;;;;;;4178093;34;20138;-49
2021/01/23 04:35:53;;;;;;;16.08;11.85;;;;;;;;;;4165366;34;20126;-51
2021/01/23 04:38:22;;;;;;;17.25;12.23;;;;;;;;;;4177976;34;20094;-48
2021/01/23 04:40:56;;;;;;;15.98;11.18;;;;;;;;;;4176409;34;20582;-52
2021/01/23 04:43:27;;;;;;;15.00;11.85;;;;;;;;;;4166050;34;20117;-52
2021/01/23 04:45:57;;;;;;;17.00;11.70;;;;;;;;;;4177686;34;20107;-55
2021/01/23 04:48:29;;;;;;;16.70;11.98;;;;;;;;;;4165987;34;20575;-50
2021/01/23 04:50:56;;;;;;;16.42;11.88;;;;;;;;;;4164943;34;20118;-53
2021/01/23 04:53:22;;;;;;;14.05;11.07;;;;;;;;;;4165087;34;20217;-51
2021/01/23 04:55:59;;;;;;;14.23;11.95;;;;;;;;;;4177494;34;20129;-52
2021/01/23 04:59:10;;;;;;;13.98;11.12;;;;;;;;;;4166081;34;20119;-51
2021/01/23 05:16:35;;;;;;;13.98;10.93;;;;;;;;;;4186824;29;20108;-48
2021/01/23 05:23:28;;;;;;;16.10;11.45;;;;;;;;;;4155508;34;20134;-47
2021/01/23 05:26:02;;;;;;;15.80;10.93;;;;;;;;;;4163459;34;20103;-50
2021/01/23 05:28:41;;;;;;;16.77;11.82;;;;;;;;;;4151172;34;20121;-51
2021/01/23 05:31:23;;;;;;;14.65;11.70;;;;;;;;;;4167181;28;20121;-50
2021/01/23 05:34:03;;;;;;;17.80;11.40;;;;;;;;;;4163064;34;20127;-49
2021/01/23 05:36:51;;;;;;;12.98;10.85;;;;;;;;;;4172941;34;20430;-47
2021/01/23 05:39:19;;;;;;;15.63;11.75;;;;;;;;;;4161986;34;20105;-48
2021/01/23 05:42:12;;;;;;;16.92;12.57;;;;;;;;;;4163789;34;20174;-51
2021/01/23 05:45:12;;;;;;;15.57;12.43;;;;;;;;;;4163261;34;20106;-47
2021/01/23 05:47:43;;;;;;;16.73;12.75;;;;;;;;;;4161810;34;20203;-49
2021/01/23 05:50:18;;;;;;;18.08;12.00;;;;;;;;;;4163122;34;20106;-50
2021/01/23 05:52:52;;;;;;;17.25;12.35;;;;;;;;;;4166738;34;20195;-48
2021/01/23 05:55:21;;;;;;;15.68;12.10;;;;;;;;;;4175819;34;20110;-51
2021/01/23 05:57:47;;;;;;;16.80;12.35;;;;;;;;;;4175539;34;20114;-53
2021/01/23 06:00:14;;;;;;;15.63;12.35;;;;;;;;;;4177396;34;20146;-50
2021/01/23 06:02:40;;;;;;;20.37;13.65;;;;;;;;;;4175633;34;20103;-52
2021/01/23 06:05:09;;;;;;;16.45;12.82;;;;;;;;;;4177272;34;20118;-48
2021/01/23 06:07:46;;;;;;;20.40;14.18;;;;;;;;;;4164687;34;20115;-51
2021/01/23 06:10:22;;;;;;;18.87;12.95;;;;;;;;;;4177060;34;20114;-53
2021/01/23 06:12:51;;;;;;;20.25;13.05;;;;;;;;;;4177083;34;20110;-52
2021/01/23 06:15:36;;;;;;;16.10;12.15;;;;;;;;;;4175415;34;20106;-48
2021/01/23 06:18:04;;;;;;;16.08;13.62;;;;;;;;;;4175836;34;20209;-50
2021/01/23 06:20:39;;;;;;;17.70;13.98;;;;;;;;;;4175160;34;20111;-51
2021/01/23 06:23:12;;;;;;;15.85;13.07;;;;;;;;;;4176157;34;20179;-50
2021/01/23 06:25:51;;;;;;;20.70;13.70;;;;;;;;;;4176845;34;20106;-50
2021/01/23 06:28:21;;;;;;;16.40;13.68;;;;;;;;;;4177082;34;20107;-52
2021/01/23 06:30:53;;;;;;;14.80;12.57;;;;;;;;;;4181640;34;20133;-49
2021/01/23 06:33:24;;;;;;;17.23;13.88;;;;;;;;;;4180112;34;20109;-49
2021/01/23 06:36:13;;;;;;;15.77;13.15;;;;;;;;;;4190615;34;20117;-49
2021/01/23 06:39:04;;;;;;;19.98;14.13;;;;;;;;;;4179629;34;20102;-47
2021/01/23 06:41:39;;;;;;;18.65;14.43;;;;;;;;;;4168886;34;20564;-54
2021/01/23 06:44:19;;;;;;;18.70;13.68;;;;;;;;;;4186453;34;20129;-51
2021/01/23 06:46:54;;;;;;;19.10;13.88;;;;;;;;;;4159257;34;20111;-50
2021/01/23 06:49:30;;;;;;;19.15;14.20;;;;;;;;;;4180932;34;20102;-47
2021/01/23 06:52:08;;;;;;;19.45;14.63;;;;;;;;;;4165374;34;20209;-47
2021/01/23 06:54:48;;;;;;;19.37;13.98;;;;;;;;;;4185950;34;20197;-53
2021/01/23 06:57:27;;;;;;;21.37;13.82;;;;;;;;;;4180377;34;20110;-56
2021/01/23 07:00:14;;;;;;;17.00;13.88;;;;;;;;;;4176644;28;20165;-52
2021/01/23 07:02:49;;;;;;;18.98;14.87;;;;;;;;;;4183121;34;20089;-53
2021/01/23 07:05:38;;;;;;;19.83;14.38;;;;;;;;;;4184164;34;20106;-57
2021/01/23 07:08:28;;;;;;;17.58;14.45;;;;;;;;;;4197683;34;20145;-51
2021/01/23 07:11:37;;;;;;;19.48;14.85;;;;;;;;;;4200475;34;20106;-49
2021/01/23 07:14:26;;;;;;;21.58;16.20;;;;;;;;;;4196449;34;20182;-51
2021/01/23 07:17:17;;;;;;;19.55;15.23;;;;;;;;;;4189888;34;20181;-51
2021/01/23 07:19:55;;;;;;;19.23;15.18;;;;;;;;;;4192078;34;20132;-48
2021/01/23 07:22:41;;;;;;;17.75;14.77;;;;;;;;;;4191828;34;20166;-53
2021/01/23 07:25:12;;;;;;;17.83;15.55;;;;;;;;;;4193927;34;20201;-52
2021/01/23 07:27:48;;;;;;;24.80;16.45;;;;;;;;;;4194211;34;20139;-51
2021/01/23 07:30:34;;;;;;;18.73;15.73;;;;;;;;;;4186390;34;20222;-49
2021/01/23 07:33:12;;;;;;;18.87;15.38;;;;;;;;;;4192157;34;20096;-48
2021/01/23 07:35:56;;;;;;;17.70;15.45;;;;;;;;;;4186377;34;20430;-49
2021/01/23 07:38:36;;;;;;;18.15;15.73;;;;;;;;;;4182865;34;20100;-49
2021/01/23 07:44:13;;;;;;;19.90;15.40;;;;;;;;;;4171791;34;20087;-49
2021/01/23 07:46:52;;;;;;;21.60;16.08;;;;;;;;;;4177831;34;20122;-47
2021/01/23 07:49:25;;;;;;;19.95;16.62;;;;;;;;;;4176764;34;20102;-48
2021/01/23 07:51:52;;;;;;;18.70;15.57;;;;;;;;;;4165507;34;20100;-45
2021/01/23 07:54:20;;;;;;;18.77;15.73;;;;;;;;;;4165474;34;20095;-46
2021/01/23 07:56:51;;;;;;;17.20;14.77;;;;;;;;;;4165740;34;20106;-49
2021/01/23 07:59:43;;;;;;;17.67;14.73;;;;;;;;;;4177941;34;20238;-47
2021/01/23 08:02:11;;;;;;;20.67;16.17;;;;;;;;;;4178376;34;20248;-54
2021/01/23 08:04:41;;;;;;;17.77;15.50;;;;;;;;;;4177958;34;20521;-48
2021/01/23 08:07:23;;;;;;;18.65;16.45;;;;;;;;;;4177138;34;20105;-54
2021/01/23 08:10:18;;;;;;;18.70;16.67;;;;;;;;;;4178307;34;20133;-50
2021/01/23 08:13:06;;;;;;;18.23;16.25;;;;;;;;;;4178161;34;20599;-47
2021/01/23 08:15:36;;;;;;;19.55;15.73;;;;;;;;;;4166038;34;20107;-47
2021/01/23 08:18:24;;;;;;;25.50;17.17;;;;;;;;;;4178361;34;20450;-50
2021/01/23 08:20:54;;;;;;;20.70;16.95;;;;;;;;;;4178194;34;20142;-55
2021/01/23 08:23:24;;;;;;;21.95;16.27;;;;;;;;;;4178075;34;20138;-53
2021/01/23 08:25:58;;;;;;;19.25;16.60;;;;;;;;;;4165670;34;20643;-48
2021/01/23 08:28:46;;;;;;;19.85;15.93;;;;;;;;;;4166641;34;20578;-51
2021/01/23 08:31:20;;;;;;;19.77;15.90;;;;;;;;;;4177935;34;20222;-56
2021/01/23 08:33:58;;;;;;;18.92;16.10;;;;;;;;;;4178071;34;20120;-58
2021/01/23 08:36:27;;;;;;;20.35;16.58;;;;;;;;;;4177723;34;20117;-50
2021/01/23 08:39:06;;;;;;;21.42;17.17;;;;;;;;;;4165226;34;20394;-49
2021/01/23 08:41:46;;;;;;;20.42;17.15;;;;;;;;;;4178056;34;20114;-50
2021/01/23 08:44:17;;;;;;;22.98;15.63;;;;;;;;;;4177895;34;20106;-53
2021/01/23 08:46:47;;;;;;;21.40;15.95;;;;;;;;;;4176631;34;20126;-53
2021/01/23 08:49:15;;;;;;;26.60;19.87;;;;;;;;;;4176739;34;20134;-51
2021/01/23 08:52:10;;;;;;;22.35;18.87;;;;;;;;;;4177697;34;20521;-50
2021/01/23 08:54:40;;;;;;;26.95;21.02;;;;;;;;;;4175489;34;20142;-50
2021/01/23 08:57:07;;;;;;;21.35;17.92;;;;;;;;;;4177904;34;20090;-52
2021/01/23 08:59:35;;;;;;;21.00;17.48;;;;;;;;;;4177324;34;20113;-50
2021/01/23 09:02:02;;;;;;;21.45;16.58;;;;;;;;;;4153755;34;20121;-48
2021/01/23 09:04:34;;;;;;;24.15;17.35;;;;;;;;;;4177700;34;20594;-49
2021/01/23 09:07:19;;;;;;;24.73;19.62;;;;;;;;;;4177814;34;20292;-58
2021/01/23 09:09:49;;;;;;;31.30;22.75;;;;;;;;;;4177486;34;20110;-53
2021/01/23 09:12:30;;;;;;;30.40;22.40;;;;;;;;;;4164902;34;20725;-53
2021/01/23 09:14:59;;;;;;;26.27;20.00;;;;;;;;;;4165988;34;20118;-51
2021/01/23 09:17:26;;;;;;;25.40;18.33;;;;;;;;;;4176485;34;20130;-52
2021/01/23 09:19:54;;;;;;;24.02;18.60;;;;;;;;;;4177251;34;20126;-52
2021/01/23 09:22:22;;;;;;;20.98;16.23;;;;;;;;;;4177583;34;20119;-52
2021/01/23 09:24:59;;;;;;;23.52;17.05;;;;;;;;;;4177722;34;20145;-54
2021/01/23 09:27:32;;;;;;;24.80;17.30;;;;;;;;;;4177555;34;20096;-56
2021/01/23 09:30:03;;;;;;;21.37;15.48;;;;;;;;;;4177855;34;20141;-49
2021/01/23 09:32:34;;;;;;;25.12;18.20;;;;;;;;;;4177586;34;20118;-49
2021/01/23 09:35:00;;;;;;;22.70;15.57;;;;;;;;;;4176054;34;20115;-50
2021/01/23 09:37:30;;;;;;;20.25;17.05;;;;;;;;;;4177339;34;20129;-53
2021/01/23 09:39:57;;;;;;;22.90;18.20;;;;;;;;;;4164918;34;20630;-54
2021/01/23 09:42:40;;;;;;;22.48;17.67;;;;;;;;;;4177643;34;20214;-50
2021/01/23 09:45:15;;;;;;;21.12;15.98;;;;;;;;;;4176233;34;20095;-48
2021/01/23 09:47:42;;;;;;;20.80;15.63;;;;;;;;;;4177494;34;20120;-50
2021/01/23 09:50:10;;;;;;;19.45;15.50;;;;;;;;;;4177324;34;20106;-51
2021/01/23 09:52:49;;;;;;;23.92;16.90;;;;;;;;;;4176272;34;20110;-49
2021/01/23 09:55:17;;;;;;;23.55;17.55;;;;;;;;;;4175927;34;20181;-49
2021/01/23 09:57:44;;;;;;;23.95;17.05;;;;;;;;;;4177370;34;20481;-49
2021/01/23 10:00:27;;;;;;;22.10;17.52;;;;;;;;;;4175430;34;20534;-48
2021/01/23 10:02:59;;;;;;;18.73;16.08;;;;;;;;;;4177344;34;20106;-53
2021/01/23 10:05:26;;;;;;;21.62;17.25;;;;;;;;;;4177929;34;20145;-54
2021/01/23 10:07:54;;;;;;;22.85;19.27;;;;;;;;;;4179166;34;20259;-47
2021/01/23 10:10:41;;;;;;;23.35;16.45;;;;;;;;;;4179084;34;20462;-47
2021/01/23 10:13:08;;;;;;;21.52;15.68;;;;;;;;;;4179269;34;20203;-46
2021/01/23 10:15:57;;;;;;;19.35;15.25;;;;;;;;;;4179241;34;20118;-52
2021/01/23 10:18:26;;;;;;;22.20;17.80;;;;;;;;;;4179230;34;20094;-49
2021/01/23 10:20:56;;;;;;;26.87;23.00;;;;;;;;;;4178782;34;20117;-47
2021/01/23 10:23:24;;;;;;;24.92;20.67;;;;;;;;;;4166468;34;20121;-49
2021/01/23 10:25:53;;;;;;;30.62;24.00;;;;;;;;;;4178580;34;20549;-51
2021/01/23 10:28:21;;;;;;;30.55;24.58;;;;;;;;;;4179031;34;20170;-49
2021/01/23 10:30:51;;;;;;;24.90;19.75;;;;;;;;;;4182293;34;20536;-55
2021/01/23 10:33:29;;;;;;;28.08;20.75;;;;;;;;;;4189017;34;20518;-52
2021/01/23 10:36:28;;;;;;;26.60;18.62;;;;;;;;;;4187498;34;20165;-52
2021/01/23 10:39:12;;;;;;;23.30;18.77;;;;;;;;;;4192035;34;20445;-54
2021/01/23 10:41:53;;;;;;;18.23;15.88;;;;;;;;;;4202778;34;20106;-49
2021/01/23 10:44:39;;;;;;;23.27;17.85;;;;;;;;;;4194345;34;20580;-49
2021/01/23 10:47:15;;;;;;;19.30;16.65;;;;;;;;;;4180461;34;20095;-50
2021/01/23 10:49:43;;;;;;;20.58;17.08;;;;;;;;;;4195819;34;20130;-53
2021/01/23 10:52:14;;;;;;;22.77;16.75;;;;;;;;;;4181243;34;20105;-52
2021/01/23 10:54:47;;;;;;;20.92;15.65;;;;;;;;;;4193714;34;20135;-49
2021/01/23 10:57:18;;;;;;;19.27;16.23;;;;;;;;;;4199191;34;20525;-48
2021/01/23 10:59:54;;;;;;;18.80;15.77;;;;;;;;;;4200318;34;20578;-58
2021/01/23 11:02:26;;;;;;;16.70;14.18;;;;;;;;;;4192057;34;20090;-51
2021/01/23 11:04:56;;;;;;;19.90;14.68;;;;;;;;;;4199771;34;20761;-54
2021/01/23 11:07:30;;;;;;;19.92;15.63;;;;;;;;;;4179477;34;20194;-51
2021/01/23 11:10:05;;;;;;;24.08;14.65;;;;;;;;;;4197429;34;20137;-54
2021/01/23 11:12:41;;;;;;;21.37;15.93;;;;;;;;;;4197880;34;20114;-46
2021/01/23 11:15:35;;;;;;;19.95;15.40;;;;;;;;;;4223883;28;20091;-48
2021/01/23 11:18:13;;;;;;;24.27;17.08;;;;;;;;;;4195926;34;20137;-50
2021/01/23 11:21:00;;;;;;;21.30;18.05;;;;;;;;;;4198895;34;20620;-50
2021/01/23 11:23:37;;;;;;;24.42;19.45;;;;;;;;;;4185103;34;20737;-55
2021/01/23 11:26:21;;;;;;;24.50;20.33;;;;;;;;;;4199356;34;20669;-56
2021/01/23 11:29:42;;;;;;;33.45;27.17;;;;;;;;;;4192604;34;20545;-51
2021/01/23 11:32:20;;;;;;;33.13;24.15;;;;;;;;;;4212401;34;20128;-48
2021/01/23 11:35:02;;;;;;;40.28;28.70;;;;;;;;;;4194413;34;20129;-49
2021/01/23 11:37:48;;;;;;;30.42;22.42;;;;;;;;;;4199793;34;20213;-49
2021/01/23 11:41:00;;;;;;;28.40;22.35;;;;;;;;;;4213859;34;20127;-48
2021/01/23 11:44:21;;;;;;;26.25;21.55;;;;;;;;;;4209298;34;20126;-48
2021/01/23 11:47:10;;;;;;;27.33;20.98;;;;;;;;;;4176723;34;20170;-51
2021/01/23 11:53:32;;;;;;;21.05;17.50;;;;;;;;;;4187548;34;20515;-48
2021/01/23 11:56:05;;;;;;;22.27;16.48;;;;;;;;;;4189212;34;20615;-52
2021/01/23 11:58:54;;;;;;;19.65;16.25;;;;;;;;;;4186109;34;20118;-50
2021/01/23 12:01:25;;;;;;;21.35;16.65;;;;;;;;;;4184618;34;20110;-53
2021/01/23 12:04:07;;;;;;;20.52;16.75;;;;;;;;;;4187500;34;20441;-49
2021/01/23 12:06:54;;;;;;;22.90;16.55;;;;;;;;;;4197610;28;20094;-49
2021/01/23 12:09:29;;;;;;;23.02;19.08;;;;;;;;;;4204149;34;20433;-53
2021/01/23 12:12:08;;;;;;;24.23;18.30;;;;;;;;;;4204124;34;20101;-48
2021/01/23 12:14:43;;;;;;;21.50;15.65;;;;;;;;;;4192123;34;20176;-51
2021/01/23 12:17:21;;;;;;;18.27;15.80;;;;;;;;;;4204718;34;20117;-53
2021/01/23 12:19:55;;;;;;;19.52;15.15;;;;;;;;;;4205032;34;20201;-55
2021/01/23 12:22:48;;;;;;;18.77;15.98;;;;;;;;;;4202957;34;20113;-49
2021/01/23 12:25:27;;;;;;;20.02;15.85;;;;;;;;;;4201932;34;20092;-51
2021/01/23 12:28:02;;;;;;;24.58;18.50;;;;;;;;;;4203742;34;20120;-48
2021/01/23 12:30:56;;;;;;;28.48;21.83;;;;;;;;;;4204420;34;20128;-50
2021/01/23 12:37:02;;;;;;;23.00;19.40;;;;;;;;;;4176653;29;20118;-46
2021/01/23 12:39:39;;;;;;;22.77;18.83;;;;;;;;;;4164819;34;20126;-51
2021/01/23 12:42:18;;;;;;;22.45;17.60;;;;;;;;;;4175004;34;20509;-54
2021/01/23 12:44:49;;;;;;;19.77;16.55;;;;;;;;;;4177280;34;20434;-51
2021/01/23 12:47:47;;;;;;;18.17;14.35;;;;;;;;;;4177150;34;20098;-48
2021/01/23 12:50:34;;;;;;;16.80;13.32;;;;;;;;;;4175570;34;20118;-46
2021/01/23 12:53:21;;;;;;;21.62;17.73;;;;;;;;;;4177273;34;20423;-51
2021/01/23 12:56:03;;;;;;;22.83;19.23;;;;;;;;;;4174898;34;20134;-48
2021/01/23 12:58:41;;;;;;;18.77;15.80;;;;;;;;;;4174351;34;20125;-52
2021/01/23 13:01:52;;;;;;;20.62;16.45;;;;;;;;;;4569164;28;20114;-48
2021/01/23 13:05:04;;;;;;;17.10;14.50;;;;;;;;;;4201640;34;20089;-51
2021/01/23 13:11:24;;;;;;;19.25;17.10;;;;;;;;;;4203145;34;20105;-49
2021/01/23 13:14:01;;;;;;;20.88;17.45;;;;;;;;;;4176363;34;20128;-50
2021/01/23 13:17:00;;;;;;;21.10;17.85;;;;;;;;;;4203318;34;20514;-49
2021/01/23 13:22:13;;;;;;;19.52;16.40;;;;;;;;;;4312993;28;20106;-50
2021/01/23 13:24:59;;;;;;;22.00;18.20;;;;;;;;;;4199974;28;20124;-47
2021/01/23 13:28:18;;;;;;;23.60;17.83;;;;;;;;;;4182767;34;20190;-49
2021/01/23 13:30:58;;;;;;;22.15;18.60;;;;;;;;;;4173395;34;20110;-56
2021/01/23 13:33:46;;;;;;;23.87;19.08;;;;;;;;;;4183749;34;20525;-49
2021/01/23 13:36:38;;;;;;;21.20;17.15;;;;;;;;;;4180307;34;20116;-56
2021/01/23 13:39:26;;;;;;;23.77;18.37;;;;;;;;;;4179842;34;20154;-53
2021/01/23 13:42:05;;;;;;;22.05;18.05;;;;;;;;;;4171405;34;20272;-50
2021/01/23 13:44:38;;;;;;;19.27;16.65;;;;;;;;;;4170648;34;20114;-48
2021/01/23 13:47:26;;;;;;;20.05;16.17;;;;;;;;;;4180382;34;20091;-54
2021/01/23 13:49:57;;;;;;;23.58;18.70;;;;;;;;;;4177220;34;20094;-46
2021/01/23 13:52:37;;;;;;;23.73;19.17;;;;;;;;;;4177325;34;20274;-48
2021/01/23 13:55:30;;;;;;;22.52;18.25;;;;;;;;;;4178386;34;20093;-49
2021/01/23 13:58:17;;;;;;;22.45;19.73;;;;;;;;;;4181166;34;20114;-51
2021/01/23 14:05:31;;;;;;;20.58;17.80;;;;;;;;;;4184987;34;20094;-48
2021/01/23 14:08:02;;;;;;;23.73;19.40;;;;;;;;;;4181540;34;20122;-47
2021/01/23 14:10:42;;;;;;;21.70;19.02;;;;;;;;;;4183797;34;20150;-56
2021/01/23 14:13:38;;;;;;;21.08;18.65;;;;;;;;;;4182899;34;20110;-60
2021/01/23 14:16:38;;;;;;;23.77;20.40;;;;;;;;;;4175269;34;20202;-59
2021/01/23 14:19:15;;;;;;;24.05;19.27;;;;;;;;;;4182346;34;20117;-54
2021/01/23 14:21:52;;;;;;;24.58;18.87;;;;;;;;;;4170925;34;20132;-49
2021/01/23 14:24:34;;;;;;;20.00;17.60;;;;;;;;;;4177027;34;20086;-51
2021/01/23 14:27:11;;;;;;;22.75;17.42;;;;;;;;;;4186471;34;20125;-49
2021/01/23 14:29:54;;;;;;;19.48;16.58;;;;;;;;;;4190640;34;20121;-55
2021/01/23 14:32:40;;;;;;;21.52;17.67;;;;;;;;;;4178533;34;20242;-57
2021/01/23 14:35:22;;;;;;;24.08;19.35;;;;;;;;;;4183348;34;20133;-49
2021/01/23 14:37:57;;;;;;;23.98;19.73;;;;;;;;;;4182856;34;20113;-51
2021/01/23 14:40:34;;;;;;;;;;;;;;;;;;4178337;34;20142;-47
2021/01/23 14:43:07;;;;;;;24.60;21.00;;;;;;;;;;4190434;34;20097;-50
2021/01/23 14:45:48;;;;;;;25.40;20.50;;;;;;;;;;4183404;34;20118;-49
2021/01/23 14:48:50;;;;;;;23.98;20.75;;;;;;;;;;4180538;34;20099;-51
2021/01/23 14:51:31;;;;;;;20.95;17.70;;;;;;;;;;4182651;34;20110;-49
2021/01/23 14:54:12;;;;;;;28.10;23.70;;;;;;;;;;4167511;34;20154;-48
2021/01/23 14:56:40;;;;;;;23.50;19.67;;;;;;;;;;4186369;34;20118;-49
2021/01/23 14:59:09;;;;;;;22.87;18.33;;;;;;;;;;4192635;34;20102;-48
2021/01/23 15:01:43;;;;;;;24.30;20.27;;;;;;;;;;4172492;34;20133;-58
2021/01/23 15:04:22;;;;;;;20.15;17.73;;;;;;;;;;4181398;34;20181;-49
2021/01/23 15:06:56;;;;;;;19.50;16.58;;;;;;;;;;4178897;34;20517;-54
2021/01/23 15:09:30;;;;;;;22.98;17.20;;;;;;;;;;4184878;34;20661;-50
2021/01/23 15:12:13;;;;;;;25.23;19.83;;;;;;;;;;4177439;34;20125;-48
2021/01/23 15:14:45;;;;;;;26.17;22.40;;;;;;;;;;4166594;34;20553;-51
2021/01/23 15:17:17;;;;;;;22.08;18.70;;;;;;;;;;4157064;34;20118;-58
2021/01/23 15:19:47;;;;;;;25.73;19.65;;;;;;;;;;4178548;34;20103;-50
2021/01/23 15:23:34;;;;;;;23.42;18.50;;;;;;;;;;4178547;34;20118;-59
2021/01/23 15:26:17;;;;;;;28.12;19.70;;;;;;;;;;4185387;34;20106;-49
2021/01/23 15:28:52;;;;;;;19.08;16.55;;;;;;;;;;4180718;34;20530;-56
2021/01/23 15:31:25;;;;;;;20.20;16.90;;;;;;;;;;4182630;34;20186;-50
2021/01/23 15:34:15;;;;;;;21.17;17.37;;;;;;;;;;4182128;34;20087;-55
2021/01/23 15:37:07;;;;;;;20.33;16.77;;;;;;;;;;4181139;34;20090;-52
2021/01/23 15:40:08;;;;;;;22.25;19.87;;;;;;;;;;4172603;34;20504;-54
2021/01/23 15:43:37;;;;;;;19.10;17.02;;;;;;;;;;4169140;34;20107;-52
2021/01/23 15:47:07;;;;;;;18.92;15.75;;;;;;;;;;4184160;34;20213;-51
2021/01/23 15:52:06;;;;;;;19.70;15.35;;;;;;;;;;4208977;34;20448;-56
2021/01/23 15:54:50;;;;;;;20.40;17.52;;;;;;;;;;4207881;34;20090;-52
2021/01/23 15:57:41;;;;;;;18.95;14.90;;;;;;;;;;4209513;34;20093;-53
2021/01/23 16:00:49;;;;;;;19.23;16.10;;;;;;;;;;4211483;34;20177;-53
2021/01/23 16:03:43;;;;;;;21.48;19.23;;;;;;;;;;4213888;34;20091;-53